Terminal Aerodrome Forecast
Issued by NWS Bismarck, ND

Home | Current Version | Previous Version | Graphics & Text | Print | Product List | Glossary On
Versions: 1 2 3 4 5 6 7 8 9 10 11 12 13 14 15 16 17 18
931
FTUS43 KBIS 042320
TAFBIS
TAF
KBIS 042320Z 0500/0524 17007KT P6SM SCT250
     FM050300 17006KT P6SM BKN110
     FM050900 VRB03KT P6SM VCSH OVC035
     FM051200 33004KT P6SM OVC010
     FM051600 32008KT P6SM OVC035
     FM052000 30009KT P6SM SCT110=

USA.gov is the U.S. government's official web portal to all federal, state and local government web resources and services.